sensor_id;sensor_type;location;lat;lon;timestamp;pressure;altitude;pressure_sealevel;temperature;humidity
73674;BME280;61975;48.660;10.164;2022-12-18T00:01:58;96654.72;;;-6.91;100.00
73674;BME280;61975;48.660;10.164;2022-12-18T00:04:27;96653.00;;;-6.97;100.00
73674;BME280;61975;48.660;10.164;2022-12-18T00:06:53;96658.28;;;-7.07;100.00
73674;BME280;61975;48.660;10.164;2022-12-18T00:09:19;96661.47;;;-7.10;100.00
73674;BME280;61975;48.660;10.164;2022-12-18T00:11:45;96655.50;;;-7.12;100.00
73674;BME280;61975;48.660;10.164;2022-12-18T00:14:11;96658.84;;;-7.05;100.00
73674;BME280;61975;48.660;10.164;2022-12-18T00:16:37;96650.81;;;-7.00;100.00
73674;BME280;61975;48.660;10.164;2022-12-18T00:19:03;96646.97;;;-7.04;100.00
73674;BME280;61975;48.660;10.164;2022-12-18T00:21:31;96654.25;;;-7.04;100.00
73674;BME280;61975;48.660;10.164;2022-12-18T00:23:57;96659.91;;;-7.06;100.00
73674;BME280;61975;48.660;10.164;2022-12-18T00:26:25;96657.78;;;-7.04;100.00
73674;BME280;61975;48.660;10.164;2022-12-18T00:28:52;96659.66;;;-7.04;100.00
73674;BME280;61975;48.660;10.164;2022-12-18T00:31:23;96665.88;;;-7.04;100.00
73674;BME280;61975;48.660;10.164;2022-12-18T00:33:49;96663.75;;;-7.02;100.00
73674;BME280;61975;48.660;10.164;2022-12-18T00:36:22;96664.63;;;-6.96;100.00
73674;BME280;61975;48.660;10.164;2022-12-18T00:38:49;96657.03;;;-6.99;100.00
73674;BME280;61975;48.660;10.164;2022-12-18T00:41:16;96665.88;;;-7.04;100.00
73674;BME280;61975;48.660;10.164;2022-12-18T00:44:02;96671.31;;;-6.99;100.00
73674;BME280;61975;48.660;10.164;2022-12-18T00:46:28;96669.94;;;-7.01;100.00
73674;BME280;61975;48.660;10.164;2022-12-18T00:48:53;96672.97;;;-6.98;100.00
73674;BME280;61975;48.660;10.164;2022-12-18T00:51:19;96669.78;;;-6.95;100.00
73674;BME280;61975;48.660;10.164;2022-12-18T00:53:44;96672.97;;;-6.98;100.00
73674;BME280;61975;48.660;10.164;2022-12-18T00:56:09;96678.63;;;-6.99;100.00
73674;BME280;61975;48.660;10.164;2022-12-18T00:58:35;96668.00;;;-7.06;100.00
73674;BME280;61975;48.660;10.164;2022-12-18T01:01:00;96665.53;;;-7.07;100.00
73674;BME280;61975;48.660;10.164;2022-12-18T01:03:25;96668.56;;;-7.04;100.00
73674;BME280;61975;48.660;10.164;2022-12-18T01:05:51;96679.41;;;-6.99;100.00
73674;BME280;61975;48.660;10.164;2022-12-18T01:08:16;96686.38;;;-7.03;100.00
73674;BME280;61975;48.660;10.164;2022-12-18T01:10:42;96691.06;;;-7.15;100.00
73674;BME280;61975;48.660;10.164;2022-12-18T01:13:07;96687.31;;;-7.14;100.00
73674;BME280;61975;48.660;10.164;2022-12-18T01:15:33;96692.69;;;-7.14;100.00
73674;BME280;61975;48.660;10.164;2022-12-18T01:17:58;96686.00;;;-7.11;100.00
73674;BME280;61975;48.660;10.164;2022-12-18T01:20:23;96691.47;;;-7.06;100.00
73674;BME280;61975;48.660;10.164;2022-12-18T01:22:49;96688.34;;;-6.98;100.00
73674;BME280;61975;48.660;10.164;2022-12-18T01:25:14;96690.22;;;-6.99;100.00
73674;BME280;61975;48.660;10.164;2022-12-18T01:27:40;96684.75;;;-7.04;100.00
73674;BME280;61975;48.660;10.164;2022-12-18T01:30:05;96688.03;;;-7.02;100.00
73674;BME280;61975;48.660;10.164;2022-12-18T01:32:31;96690.47;;;-7.00;100.00
73674;BME280;61975;48.660;10.164;2022-12-18T01:34:57;96695.59;;;-6.99;100.00
73674;BME280;61975;48.660;10.164;2022-12-18T01:37:22;96705.41;;;-6.93;100.00
73674;BME280;61975;48.660;10.164;2022-12-18T01:39:48;96700.38;;;-7.06;100.00
73674;BME280;61975;48.660;10.164;2022-12-18T01:42:16;96703.88;;;-7.05;100.00
73674;BME280;61975;48.660;10.164;2022-12-18T01:47:50;96713.84;;;-7.06;100.00
73674;BME280;61975;48.660;10.164;2022-12-18T01:52:44;96706.09;;;-7.02;100.00
73674;BME280;61975;48.660;10.164;2022-12-18T01:55:12;96707.41;;;-7.05;100.00
73674;BME280;61975;48.660;10.164;2022-12-18T01:57:40;96712.03;;;-7.00;100.00
73674;BME280;61975;48.660;10.164;2022-12-18T02:00:14;96709.34;;;-7.00;100.00
73674;BME280;61975;48.660;10.164;2022-12-18T02:02:41;96707.72;;;-7.01;100.00
73674;BME280;61975;48.660;10.164;2022-12-18T02:05:09;96713.38;;;-7.03;100.00
73674;BME280;61975;48.660;10.164;2022-12-18T02:11:27;96701.53;;;-7.02;100.00
73674;BME280;61975;48.660;10.164;2022-12-18T02:19:00;96708.56;;;-7.01;100.00
73674;BME280;61975;48.660;10.164;2022-12-18T02:21:36;96700.50;;;-6.96;100.00
73674;BME280;61975;48.660;10.164;2022-12-18T02:24:17;96705.91;;;-6.96;100.00
73674;BME280;61975;48.660;10.164;2022-12-18T02:26:56;96701.34;;;-6.95;100.00
73674;BME280;61975;48.660;10.164;2022-12-18T02:29:26;96703.22;;;-6.96;100.00
73674;BME280;61975;48.660;10.164;2022-12-18T02:31:56;96694.88;;;-6.94;100.00
73674;BME280;61975;48.660;10.164;2022-12-18T02:34:27;96693.00;;;-6.94;100.00
73674;BME280;61975;48.660;10.164;2022-12-18T02:36:54;96698.69;;;-6.90;100.00
73674;BME280;61975;48.660;10.164;2022-12-18T02:39:23;96692.81;;;-6.87;100.00
73674;BME280;61975;48.660;10.164;2022-12-18T02:41:50;96699.34;;;-6.83;100.00
73674;BME280;61975;48.660;10.164;2022-12-18T02:44:15;96701.31;;;-6.79;100.00
73674;BME280;61975;48.660;10.164;2022-12-18T02:46:44;96719.66;;;-6.81;100.00
73674;BME280;61975;48.660;10.164;2022-12-18T02:50:03;96721.75;;;-6.83;100.00
73674;BME280;61975;48.660;10.164;2022-12-18T02:57:54;96715.28;;;-6.82;100.00
73674;BME280;61975;48.660;10.164;2022-12-18T03:03:45;96711.53;;;-6.81;100.00
73674;BME280;61975;48.660;10.164;2022-12-18T03:06:21;96692.13;;;-6.78;100.00
73674;BME280;61975;48.660;10.164;2022-12-18T03:08:51;96696.78;;;-6.73;100.00
73674;BME280;61975;48.660;10.164;2022-12-18T03:11:19;96708.91;;;-6.76;100.00
73674;BME280;61975;48.660;10.164;2022-12-18T03:14:06;96707.53;;;-6.78;100.00
73674;BME280;61975;48.660;10.164;2022-12-18T03:16:34;96717.34;;;-6.72;100.00
73674;BME280;61975;48.660;10.164;2022-12-18T03:19:04;96711.25;;;-6.63;100.00
73674;BME280;61975;48.660;10.164;2022-12-18T03:21:43;96716.53;;;-6.51;100.00
73674;BME280;61975;48.660;10.164;2022-12-18T03:24:11;96716.91;;;-6.43;100.00
73674;BME280;61975;48.660;10.164;2022-12-18T03:26:40;96712.94;;;-6.35;100.00
73674;BME280;61975;48.660;10.164;2022-12-18T03:29:10;96727.91;;;-6.28;100.00
73674;BME280;61975;48.660;10.164;2022-12-18T03:31:40;96726.81;;;-6.27;100.00
73674;BME280;61975;48.660;10.164;2022-12-18T03:34:20;96714.69;;;-6.24;100.00
73674;BME280;61975;48.660;10.164;2022-12-18T03:36:48;96705.03;;;-6.20;100.00
73674;BME280;61975;48.660;10.164;2022-12-18T03:39:13;96698.81;;;-6.21;100.00
73674;BME280;61975;48.660;10.164;2022-12-18T03:47:39;96700.38;;;-6.25;100.00
73674;BME280;61975;48.660;10.164;2022-12-18T03:50:48;96693.59;;;-6.27;100.00
73674;BME280;61975;48.660;10.164;2022-12-18T03:55:51;96697.19;;;-6.22;100.00
73674;BME280;61975;48.660;10.164;2022-12-18T03:58:19;96696.03;;;-6.26;100.00
73674;BME280;61975;48.660;10.164;2022-12-18T04:00:46;96702.59;;;-6.22;100.00
73674;BME280;61975;48.660;10.164;2022-12-18T04:03:13;96701.75;;;-6.22;100.00
73674;BME280;61975;48.660;10.164;2022-12-18T04:05:40;96706.91;;;-6.21;100.00
73674;BME280;61975;48.660;10.164;2022-12-18T04:08:08;96702.13;;;-6.14;100.00
73674;BME280;61975;48.660;10.164;2022-12-18T04:10:33;96704.34;;;-6.11;100.00
73674;BME280;61975;48.660;10.164;2022-12-18T04:12:59;96716.75;;;-6.10;100.00
73674;BME280;61975;48.660;10.164;2022-12-18T04:15:24;96708.13;;;-6.12;100.00
73674;BME280;61975;48.660;10.164;2022-12-18T04:17:50;96714.56;;;-6.13;100.00
73674;BME280;61975;48.660;10.164;2022-12-18T04:20:16;96716.22;;;-6.12;100.00
73674;BME280;61975;48.660;10.164;2022-12-18T04:22:42;96710.28;;;-6.09;100.00
73674;BME280;61975;48.660;10.164;2022-12-18T04:25:07;96711.97;;;-6.03;100.00
73674;BME280;61975;48.660;10.164;2022-12-18T04:27:33;96705.81;;;-5.98;100.00
73674;BME280;61975;48.660;10.164;2022-12-18T04:29:59;96708.81;;;-5.95;100.00
73674;BME280;61975;48.660;10.164;2022-12-18T04:32:24;96722.41;;;-5.90;100.00
73674;BME280;61975;48.660;10.164;2022-12-18T04:34:50;96718.56;;;-5.94;100.00
73674;BME280;61975;48.660;10.164;2022-12-18T04:37:15;96712.41;;;-5.89;100.00
73674;BME280;61975;48.660;10.164;2022-12-18T04:39:40;96720.53;;;-5.89;100.00
73674;BME280;61975;48.660;10.164;2022-12-18T04:42:06;96734.34;;;-5.86;100.00
73674;BME280;61975;48.660;10.164;2022-12-18T04:44:31;96722.41;;;-5.90;100.00
73674;BME280;61975;48.660;10.164;2022-12-18T04:46:57;96724.53;;;-5.92;100.00
73674;BME280;61975;48.660;10.164;2022-12-18T04:49:22;96735.66;;;-5.88;100.00
73674;BME280;61975;48.660;10.164;2022-12-18T04:51:47;96716.38;;;-5.97;100.00
73674;BME280;61975;48.660;10.164;2022-12-18T04:54:13;96719.63;;;-5.95;100.00
73674;BME280;61975;48.660;10.164;2022-12-18T04:56:38;96718.84;;;-5.95;100.00
73674;BME280;61975;48.660;10.164;2022-12-18T04:59:04;96730.72;;;-5.96;100.00
73674;BME280;61975;48.660;10.164;2022-12-18T05:01:29;96740.13;;;-5.99;100.00
73674;BME280;61975;48.660;10.164;2022-12-18T05:03:55;96736.38;;;-5.98;100.00
73674;BME280;61975;48.660;10.164;2022-12-18T05:06:20;96735.84;;;-5.95;100.00
73674;BME280;61975;48.660;10.164;2022-12-18T05:08:46;96734.22;;;-5.96;100.00
73674;BME280;61975;48.660;10.164;2022-12-18T05:11:13;96741.81;;;-5.93;100.00
73674;BME280;61975;48.660;10.164;2022-12-18T05:13:41;96732.22;;;-5.83;100.00
73674;BME280;61975;48.660;10.164;2022-12-18T05:16:07;96741.38;;;-5.85;100.00
73674;BME280;61975;48.660;10.164;2022-12-18T05:18:32;96745.97;;;-5.85;100.00
73674;BME280;61975;48.660;10.164;2022-12-18T05:20:58;96740.81;;;-5.87;100.00
73674;BME280;61975;48.660;10.164;2022-12-18T05:23:24;96741.13;;;-5.83;100.00
73674;BME280;61975;48.660;10.164;2022-12-18T05:25:53;96758.09;;;-5.88;100.00
73674;BME280;61975;48.660;10.164;2022-12-18T05:28:20;96752.69;;;-5.88;100.00
73674;BME280;61975;48.660;10.164;2022-12-18T05:30:53;96745.59;;;-5.94;100.00
73674;BME280;61975;48.660;10.164;2022-12-18T05:33:19;96743.66;;;-5.98;100.00
73674;BME280;61975;48.660;10.164;2022-12-18T05:35:51;96753.38;;;-5.97;100.00
73674;BME280;61975;48.660;10.164;2022-12-18T05:38:17;96758.00;;;-5.98;100.00
73674;BME280;61975;48.660;10.164;2022-12-18T05:40:43;96754.50;;;-5.93;100.00
73674;BME280;61975;48.660;10.164;2022-12-18T05:43:09;96753.59;;;-6.04;100.00
73674;BME280;61975;48.660;10.164;2022-12-18T05:45:37;96751.66;;;-6.08;100.00
73674;BME280;61975;48.660;10.164;2022-12-18T05:48:03;96752.47;;;-6.08;100.00
73674;BME280;61975;48.660;10.164;2022-12-18T05:50:29;96750.56;;;-6.07;100.00
73674;BME280;61975;48.660;10.164;2022-12-18T05:52:54;96742.97;;;-6.10;100.00
73674;BME280;61975;48.660;10.164;2022-12-18T05:55:19;96736.25;;;-6.08;100.00
73674;BME280;61975;48.660;10.164;2022-12-18T05:57:45;96739.00;;;-6.03;100.00
73674;BME280;61975;48.660;10.164;2022-12-18T06:00:11;96741.22;;;-6.00;100.00
73674;BME280;61975;48.660;10.164;2022-12-18T06:02:36;96743.88;;;-6.05;100.00
73674;BME280;61975;48.660;10.164;2022-12-18T06:05:02;96752.59;;;-5.98;100.00
73674;BME280;61975;48.660;10.164;2022-12-18T06:07:27;96761.56;;;-5.92;100.00
73674;BME280;61975;48.660;10.164;2022-12-18T06:09:53;96754.22;;;-5.97;100.00
73674;BME280;61975;48.660;10.164;2022-12-18T06:12:18;96754.16;;;-6.02;100.00
73674;BME280;61975;48.660;10.164;2022-12-18T06:14:43;96753.63;;;-5.99;100.00
73674;BME280;61975;48.660;10.164;2022-12-18T06:17:09;96759.53;;;-6.02;100.00
73674;BME280;61975;48.660;10.164;2022-12-18T06:19:34;96757.06;;;-6.08;100.00
73674;BME280;61975;48.660;10.164;2022-12-18T06:22:00;96766.78;;;-6.07;100.00
73674;BME280;61975;48.660;10.164;2022-12-18T06:24:25;96771.16;;;-6.06;100.00
73674;BME280;61975;48.660;10.164;2022-12-18T06:26:50;96772.44;;;-6.09;100.00
73674;BME280;61975;48.660;10.164;2022-12-18T06:29:16;96764.91;;;-6.07;100.00
73674;BME280;61975;48.660;10.164;2022-12-18T06:31:41;96764.16;;;-6.02;100.00
73674;BME280;61975;48.660;10.164;2022-12-18T06:34:07;96769.31;;;-6.01;100.00
73674;BME280;61975;48.660;10.164;2022-12-18T06:36:32;96776.59;;;-6.01;100.00
73674;BME280;61975;48.660;10.164;2022-12-18T06:38:58;96779.63;;;-5.98;100.00
73674;BME280;61975;48.660;10.164;2022-12-18T06:41:24;96772.28;;;-6.02;100.00
73674;BME280;61975;48.660;10.164;2022-12-18T06:43:49;96775.50;;;-6.00;100.00
73674;BME280;61975;48.660;10.164;2022-12-18T06:46:15;96778.38;;;-6.12;100.00
73674;BME280;61975;48.660;10.164;2022-12-18T06:48:41;96775.09;;;-6.14;100.00
73674;BME280;61975;48.660;10.164;2022-12-18T06:51:06;96780.00;;;-6.11;100.00
73674;BME280;61975;48.660;10.164;2022-12-18T06:53:32;96775.13;;;-6.09;100.00
73674;BME280;61975;48.660;10.164;2022-12-18T06:56:05;96771.63;;;-6.09;100.00
73674;BME280;61975;48.660;10.164;2022-12-18T06:58:31;96779.00;;;-6.05;100.00
73674;BME280;61975;48.660;10.164;2022-12-18T07:01:04;96779.28;;;-6.01;100.00
73674;BME280;61975;48.660;10.164;2022-12-18T07:03:30;96774.38;;;-6.04;100.00
73674;BME280;61975;48.660;10.164;2022-12-18T07:05:55;96773.06;;;-6.02;100.00
73674;BME280;61975;48.660;10.164;2022-12-18T07:08:21;96779.03;;;-6.00;100.00
73674;BME280;61975;48.660;10.164;2022-12-18T07:10:46;96777.47;;;-5.96;100.00
73674;BME280;61975;48.660;10.164;2022-12-18T07:13:14;96784.63;;;-5.85;100.00
73674;BME280;61975;48.660;10.164;2022-12-18T07:15:40;96798.63;;;-5.88;100.00
73674;BME280;61975;48.660;10.164;2022-12-18T07:18:05;96802.91;;;-5.92;100.00
73674;BME280;61975;48.660;10.164;2022-12-18T07:20:30;96799.66;;;-5.94;100.00
73674;BME280;61975;48.660;10.164;2022-12-18T07:22:56;96794.81;;;-5.92;100.00
73674;BME280;61975;48.660;10.164;2022-12-18T07:25:21;96806.69;;;-5.93;100.00
73674;BME280;61975;48.660;10.164;2022-12-18T07:27:47;96813.19;;;-5.94;100.00
73674;BME280;61975;48.660;10.164;2022-12-18T07:30:12;96813.44;;;-5.95;100.00
73674;BME280;61975;48.660;10.164;2022-12-18T07:32:37;96825.13;;;-5.90;100.00
73674;BME280;61975;48.660;10.164;2022-12-18T07:35:03;96823.06;;;-5.78;100.00
73674;BME280;61975;48.660;10.164;2022-12-18T07:37:29;96823.31;;;-5.84;100.00
73674;BME280;61975;48.660;10.164;2022-12-18T07:39:54;96830.13;;;-5.77;100.00
73674;BME280;61975;48.660;10.164;2022-12-18T07:42:19;96837.41;;;-5.77;100.00
73674;BME280;61975;48.660;10.164;2022-12-18T07:45:00;96832.25;;;-5.83;100.00
73674;BME280;61975;48.660;10.164;2022-12-18T07:47:26;96839.28;;;-5.82;100.00
73674;BME280;61975;48.660;10.164;2022-12-18T07:49:52;96833.63;;;-5.81;100.00
73674;BME280;61975;48.660;10.164;2022-12-18T07:52:17;96842.56;;;-5.76;100.00
73674;BME280;61975;48.660;10.164;2022-12-18T07:54:43;96841.44;;;-5.80;100.00
73674;BME280;61975;48.660;10.164;2022-12-18T07:57:08;96852.31;;;-5.75;100.00
73674;BME280;61975;48.660;10.164;2022-12-18T07:59:34;96850.94;;;-5.77;100.00
73674;BME280;61975;48.660;10.164;2022-12-18T08:01:59;96847.97;;;-5.76;100.00
73674;BME280;61975;48.660;10.164;2022-12-18T08:04:25;96836.34;;;-5.76;100.00
73674;BME280;61975;48.660;10.164;2022-12-18T08:06:51;96840.38;;;-5.79;100.00
73674;BME280;61975;48.660;10.164;2022-12-18T08:09:16;96843.66;;;-5.77;100.00
73674;BME280;61975;48.660;10.164;2022-12-18T08:11:42;96844.81;;;-5.68;100.00
73674;BME280;61975;48.660;10.164;2022-12-18T08:14:07;96848.59;;;-5.68;100.00
73674;BME280;61975;48.660;10.164;2022-12-18T08:16:33;96848.41;;;-5.62;100.00
73674;BME280;61975;48.660;10.164;2022-12-18T08:18:58;96845.53;;;-5.55;100.00
73674;BME280;61975;48.660;10.164;2022-12-18T08:21:26;96836.31;;;-5.54;100.00
73674;BME280;61975;48.660;10.164;2022-12-18T08:23:53;96835.25;;;-5.53;100.00
73674;BME280;61975;48.660;10.164;2022-12-18T08:26:19;96847.72;;;-5.52;100.00
73674;BME280;61975;48.660;10.164;2022-12-18T08:28:45;96840.28;;;-5.40;100.00
73674;BME280;61975;48.660;10.164;2022-12-18T08:31:10;96833.03;;;-5.35;100.00
73674;BME280;61975;48.660;10.164;2022-12-18T08:33:37;96834.13;;;-5.31;100.00
73674;BME280;61975;48.660;10.164;2022-12-18T08:36:04;96820.44;;;-5.24;100.00
73674;BME280;61975;48.660;10.164;2022-12-18T08:38:29;96811.19;;;-5.28;100.00
73674;BME280;61975;48.660;10.164;2022-12-18T08:40:59;96819.84;;;-5.26;100.00
73674;BME280;61975;48.660;10.164;2022-12-18T08:43:25;96818.78;;;-5.25;100.00
73674;BME280;61975;48.660;10.164;2022-12-18T08:46:09;96820.16;;;-5.23;100.00
73674;BME280;61975;48.660;10.164;2022-12-18T08:48:34;96821.84;;;-5.17;100.00
73674;BME280;61975;48.660;10.164;2022-12-18T08:51:00;96832.75;;;-5.07;100.00
73674;BME280;61975;48.660;10.164;2022-12-18T08:53:26;96834.97;;;-5.04;100.00
73674;BME280;61975;48.660;10.164;2022-12-18T08:55:52;96837.72;;;-4.99;100.00
73674;BME280;61975;48.660;10.164;2022-12-18T08:58:19;96837.44;;;-4.97;100.00
73674;BME280;61975;48.660;10.164;2022-12-18T09:00:44;96847.50;;;-4.93;100.00
73674;BME280;61975;48.660;10.164;2022-12-18T09:03:14;96837.00;;;-4.89;100.00
73674;BME280;61975;48.660;10.164;2022-12-18T09:05:40;96832.91;;;-4.92;100.00
73674;BME280;61975;48.660;10.164;2022-12-18T09:08:06;96844.53;;;-4.91;100.00
73674;BME280;61975;48.660;10.164;2022-12-18T09:10:31;96840.00;;;-4.86;99.99
73674;BME280;61975;48.660;10.164;2022-12-18T09:12:57;96839.19;;;-4.86;99.54
73674;BME280;61975;48.660;10.164;2022-12-18T09:15:22;96825.66;;;-4.86;100.00
73674;BME280;61975;48.660;10.164;2022-12-18T09:17:48;96829.50;;;-4.77;100.00
73674;BME280;61975;48.660;10.164;2022-12-18T09:20:18;96826.34;;;-4.69;100.00
73674;BME280;61975;48.660;10.164;2022-12-18T09:22:43;96817.47;;;-4.60;99.59
73674;BME280;61975;48.660;10.164;2022-12-18T09:25:09;96820.97;;;-4.59;98.60
73674;BME280;61975;48.660;10.164;2022-12-18T09:27:35;96829.66;;;-4.57;98.44
73674;BME280;61975;48.660;10.164;2022-12-18T09:30:01;96826.47;;;-4.49;97.37
73674;BME280;61975;48.660;10.164;2022-12-18T09:32:26;96832.19;;;-4.46;96.75
73674;BME280;61975;48.660;10.164;2022-12-18T09:34:51;96836.84;;;-4.41;97.55
73674;BME280;61975;48.660;10.164;2022-12-18T09:37:17;96825.19;;;-4.42;96.89
73674;BME280;61975;48.660;10.164;2022-12-18T09:39:43;96817.06;;;-4.42;96.79
73674;BME280;61975;48.660;10.164;2022-12-18T09:42:19;96813.56;;;-4.37;96.86
73674;BME280;61975;48.660;10.164;2022-12-18T09:44:50;96809.75;;;-4.36;95.83
73674;BME280;61975;48.660;10.164;2022-12-18T09:47:37;96817.91;;;-4.36;96.14
73674;BME280;61975;48.660;10.164;2022-12-18T09:50:30;96819.25;;;-4.34;95.60
73674;BME280;61975;48.660;10.164;2022-12-18T09:52:56;96815.00;;;-4.20;100.00
73674;BME280;61975;48.660;10.164;2022-12-18T09:55:49;96814.50;;;-4.17;98.83
73674;BME280;61975;48.660;10.164;2022-12-18T10:00:44;96819.06;;;-4.22;96.85
73674;BME280;61975;48.660;10.164;2022-12-18T10:03:12;96819.63;;;-4.20;96.10
73674;BME280;61975;48.660;10.164;2022-12-18T10:10:57;96825.06;;;-4.15;96.26
73674;BME280;61975;48.660;10.164;2022-12-18T10:13:36;96829.41;;;-4.14;95.81
73674;BME280;61975;48.660;10.164;2022-12-18T10:16:19;96828.34;;;-4.13;95.03
73674;BME280;61975;48.660;10.164;2022-12-18T10:22:25;96821.59;;;-4.06;94.50
73674;BME280;61975;48.660;10.164;2022-12-18T10:27:43;96795.88;;;-4.03;94.80
73674;BME280;61975;48.660;10.164;2022-12-18T10:30:18;96800.78;;;-4.00;95.07
73674;BME280;61975;48.660;10.164;2022-12-18T10:32:43;96798.88;;;-4.00;95.34
73674;BME280;61975;48.660;10.164;2022-12-18T10:35:22;96803.50;;;-3.90;94.85
73674;BME280;61975;48.660;10.164;2022-12-18T10:38:19;96804.91;;;-3.88;94.79
73674;BME280;61975;48.660;10.164;2022-12-18T10:40:53;96809.50;;;-3.83;94.40
73674;BME280;61975;48.660;10.164;2022-12-18T10:43:31;96814.97;;;-3.78;94.56
73674;BME280;61975;48.660;10.164;2022-12-18T10:46:17;96807.41;;;-3.66;94.12
73674;BME280;61975;48.660;10.164;2022-12-18T10:51:34;96800.97;;;-3.50;93.49
73674;BME280;61975;48.660;10.164;2022-12-18T10:54:14;96814.00;;;-3.47;92.58
73674;BME280;61975;48.660;10.164;2022-12-18T10:56:40;96821.59;;;-3.49;92.07
73674;BME280;61975;48.660;10.164;2022-12-18T10:59:09;96816.94;;;-3.59;92.34
73674;BME280;61975;48.660;10.164;2022-12-18T11:01:53;96810.44;;;-3.58;93.04
73674;BME280;61975;48.660;10.164;2022-12-18T11:04:25;96813.88;;;-3.77;94.22
73674;BME280;61975;48.660;10.164;2022-12-18T11:07:01;96814.97;;;-3.78;95.22
73674;BME280;61975;48.660;10.164;2022-12-18T11:09:29;96809.06;;;-3.65;94.52
73674;BME280;61975;48.660;10.164;2022-12-18T11:11:58;96810.66;;;-3.74;95.10
73674;BME280;61975;48.660;10.164;2022-12-18T11:14:29;96819.09;;;-3.71;96.55
73674;BME280;61975;48.660;10.164;2022-12-18T11:16:58;96824.81;;;-3.57;94.58
73674;BME280;61975;48.660;10.164;2022-12-18T11:19:37;96816.13;;;-3.59;94.30
73674;BME280;61975;48.660;10.164;2022-12-18T11:22:23;96810.44;;;-3.63;94.14
73674;BME280;61975;48.660;10.164;2022-12-18T11:25:06;96810.69;;;-3.59;94.50
73674;BME280;61975;48.660;10.164;2022-12-18T11:27:32;96814.50;;;-3.60;94.53
73674;BME280;61975;48.660;10.164;2022-12-18T11:32:39;96803.13;;;-3.57;95.37
73674;BME280;61975;48.660;10.164;2022-12-18T11:38:05;96808.63;;;-3.37;94.82
73674;BME280;61975;48.660;10.164;2022-12-18T11:40:36;96802.09;;;-3.36;94.17
73674;BME280;61975;48.660;10.164;2022-12-18T11:43:17;96791.78;;;-3.24;93.04
73674;BME280;61975;48.660;10.164;2022-12-18T11:45:54;96792.34;;;-3.27;93.17
73674;BME280;61975;48.660;10.164;2022-12-18T11:50:59;96776.63;;;-3.20;92.52
73674;BME280;61975;48.660;10.164;2022-12-18T11:53:27;96776.63;;;-3.20;91.92
73674;BME280;61975;48.660;10.164;2022-12-18T12:01:48;96779.25;;;-3.55;94.89
73674;BME280;61975;48.660;10.164;2022-12-18T12:10:05;96769.50;;;-3.46;94.37
73674;BME280;61975;48.660;10.164;2022-12-18T12:12:51;96763.81;;;-3.40;93.99
73674;BME280;61975;48.660;10.164;2022-12-18T12:17:55;96748.91;;;-3.27;93.64
73674;BME280;61975;48.660;10.164;2022-12-18T12:23:53;96751.06;;;-3.29;93.30
73674;BME280;61975;48.660;10.164;2022-12-18T12:34:25;96732.88;;;-3.29;94.13
73674;BME280;61975;48.660;10.164;2022-12-18T12:37:33;96723.38;;;-3.26;94.41
73674;BME280;61975;48.660;10.164;2022-12-18T12:40:02;96731.53;;;-3.26;94.13
73674;BME280;61975;48.660;10.164;2022-12-18T12:42:47;96725.84;;;-3.25;93.70
73674;BME280;61975;48.660;10.164;2022-12-18T12:51:04;96735.06;;;-3.21;92.99
73674;BME280;61975;48.660;10.164;2022-12-18T12:53:36;96735.06;;;-3.36;93.70
73674;BME280;61975;48.660;10.164;2022-12-18T12:56:03;96734.75;;;-3.39;94.57
73674;BME280;61975;48.660;10.164;2022-12-18T13:07:37;96744.50;;;-3.53;96.14
73674;BME280;61975;48.660;10.164;2022-12-18T13:13:03;96747.50;;;-3.50;96.94
73674;BME280;61975;48.660;10.164;2022-12-18T13:15:47;96746.72;;;-3.40;96.71
73674;BME280;61975;48.660;10.164;2022-12-18T13:18:33;96746.16;;;-3.42;96.47
73674;BME280;61975;48.660;10.164;2022-12-18T13:25:51;96735.84;;;-3.45;96.46
73674;BME280;61975;48.660;10.164;2022-12-18T13:34:15;96734.78;;;-3.44;97.05
73674;BME280;61975;48.660;10.164;2022-12-18T13:36:41;96740.19;;;-3.39;97.53
73674;BME280;61975;48.660;10.164;2022-12-18T13:41:48;96734.78;;;-3.29;95.97
73674;BME280;61975;48.660;10.164;2022-12-18T13:44:33;96739.13;;;-3.23;94.93
73674;BME280;61975;48.660;10.164;2022-12-18T13:47:00;96746.72;;;-3.35;95.47
73674;BME280;61975;48.660;10.164;2022-12-18T13:49:38;96738.56;;;-3.40;96.25
73674;BME280;61975;48.660;10.164;2022-12-18T13:52:17;96739.09;;;-3.43;97.12
73674;BME280;61975;48.660;10.164;2022-12-18T13:54:46;96741.00;;;-3.44;97.88
73674;BME280;61975;48.660;10.164;2022-12-18T13:57:36;96736.69;;;-3.40;97.20
73674;BME280;61975;48.660;10.164;2022-12-18T14:02:45;96728.81;;;-3.36;97.83
73674;BME280;61975;48.660;10.164;2022-12-18T14:05:40;96734.25;;;-3.26;97.13
73674;BME280;61975;48.660;10.164;2022-12-18T14:08:16;96729.91;;;-3.27;96.70
73674;BME280;61975;48.660;10.164;2022-12-18T14:10:45;96733.69;;;-3.28;96.73
73674;BME280;61975;48.660;10.164;2022-12-18T14:13:18;96733.16;;;-3.30;97.06
73674;BME280;61975;48.660;10.164;2022-12-18T14:15:47;96727.72;;;-3.40;96.80
73674;BME280;61975;48.660;10.164;2022-12-18T14:21:02;96736.41;;;-3.48;98.70
73674;BME280;61975;48.660;10.164;2022-12-18T14:23:41;96745.31;;;-3.63;99.34
73674;BME280;61975;48.660;10.164;2022-12-18T14:28:44;96734.16;;;-3.66;99.95
73674;BME280;61975;48.660;10.164;2022-12-18T14:31:20;96732.53;;;-3.67;100.00
73674;BME280;61975;48.660;10.164;2022-12-18T14:33:46;96735.50;;;-3.69;100.00
73674;BME280;61975;48.660;10.164;2022-12-18T14:36:17;96729.53;;;-3.76;100.00
73674;BME280;61975;48.660;10.164;2022-12-18T14:38:51;96739.84;;;-3.78;100.00
73674;BME280;61975;48.660;10.164;2022-12-18T14:41:19;96750.66;;;-3.83;100.00
73674;BME280;61975;48.660;10.164;2022-12-18T14:43:48;96753.63;;;-3.84;100.00
73674;BME280;61975;48.660;10.164;2022-12-18T14:49:31;96745.81;;;-3.76;100.00
73674;BME280;61975;48.660;10.164;2022-12-18T14:51:59;96740.06;;;-3.84;100.00
73674;BME280;61975;48.660;10.164;2022-12-18T14:54:27;96754.69;;;-3.90;100.00
73674;BME280;61975;48.660;10.164;2022-12-18T14:57:00;96744.16;;;-3.87;100.00
73674;BME280;61975;48.660;10.164;2022-12-18T14:59:28;96752.03;;;-3.85;100.00